Time;durP1;ratioP1;P1;durP2;ratioP2;P2;SDS_P1;SDS_P2;PMS_P1;PMS_P2;Temp;Humidity;BMP_temperature;BMP_pressure;BME280_temperature;BME280_humidity;BME280_pressure;Samples;Min_cycle;Max_cycle;Signal;HPM_P1;HPM_P2
2021/12/10 00:00:05;;;;;;;18.13;4.53;;;4.50;99.90;;;;;;6248310;23;20418;-84
2021/12/10 00:02:35;;;;;;;13.03;3.67;;;4.50;99.90;;;;;;6248210;23;20244;-83
2021/12/10 00:05:02;;;;;;;13.23;4.07;;;4.60;99.90;;;;;;6247879;22;20415;-83
2021/12/10 00:07:30;;;;;;;12.87;4.20;;;4.50;99.90;;;;;;6247885;23;20439;-86
2021/12/10 00:10:01;;;;;;;12.53;4.70;;;4.50;99.90;;;;;;6247802;23;20400;-84
2021/12/10 00:12:36;;;;;;;16.57;4.07;;;4.60;99.90;;;;;;6247857;23;20181;-84
2021/12/10 00:15:06;;;;;;;13.87;4.63;;;4.60;99.90;;;;;;6248450;23;20428;-83
2021/12/10 00:17:34;;;;;;;17.63;4.37;;;4.60;99.90;;;;;;6247276;23;20890;-81
2021/12/10 00:20:07;;;;;;;16.97;4.33;;;4.60;99.90;;;;;;6247701;23;20924;-83
2021/12/10 00:22:41;;;;;;;13.63;4.40;;;4.70;99.90;;;;;;6246503;23;20412;-84
2021/12/10 00:25:15;;;;;;;10.50;3.97;;;4.70;99.90;;;;;;6247705;23;20399;-84
2021/12/10 00:27:46;;;;;;;8.63;3.93;;;4.70;99.90;;;;;;6247461;23;20443;-83
2021/12/10 00:30:17;;;;;;;12.03;4.03;;;4.80;99.90;;;;;;6247348;22;20598;-85
2021/12/10 00:32:49;;;;;;;9.20;3.97;;;4.80;99.90;;;;;;6248072;23;20249;-85
2021/12/10 00:35:20;;;;;;;10.90;3.90;;;4.90;99.90;;;;;;6247984;23;20392;-83
2021/12/10 00:37:47;;;;;;;9.13;3.70;;;4.90;99.90;;;;;;6247174;23;20411;-81
2021/12/10 00:40:16;;;;;;;14.03;4.17;;;4.90;99.90;;;;;;6246644;23;20249;-80
2021/12/10 00:42:47;;;;;;;11.60;3.43;;;4.90;99.90;;;;;;6247444;23;20173;-82
2021/12/10 00:45:18;;;;;;;6.50;3.20;;;4.90;99.90;;;;;;6247203;23;20200;-83
2021/12/10 00:47:48;;;;;;;7.57;3.33;;;5.00;99.90;;;;;;6247980;23;20542;-81
2021/12/10 00:50:18;;;;;;;10.23;3.27;;;5.00;99.90;;;;;;6247582;23;20162;-84
2021/12/10 00:52:47;;;;;;;9.03;3.10;;;5.10;99.90;;;;;;6247897;23;20391;-83
2021/12/10 00:55:15;;;;;;;5.67;2.97;;;5.10;99.90;;;;;;6246948;23;20602;-84
2021/12/10 00:57:43;;;;;;;8.37;3.07;;;5.10;99.90;;;;;;6248738;23;20178;-83
2021/12/10 01:00:15;;;;;;;8.00;3.43;;;5.10;99.90;;;;;;6246621;23;20185;-82
2021/12/10 01:02:44;;;;;;;4.03;2.80;;;5.10;99.90;;;;;;6247572;22;20170;-84
2021/12/10 01:05:14;;;;;;;12.27;3.30;;;5.10;99.90;;;;;;6246540;23;20178;-86
2021/12/10 01:07:42;;;;;;;5.43;2.77;;;5.10;99.90;;;;;;6246945;23;20741;-83
2021/12/10 01:10:26;;;;;;;10.27;3.23;;;5.10;99.90;;;;;;6247092;23;20174;-84
2021/12/10 01:12:59;;;;;;;10.07;2.87;;;5.30;99.90;;;;;;6246612;23;20181;-80
2021/12/10 01:15:45;;;;;;;9.50;2.83;;;5.30;99.90;;;;;;6246050;23;20185;-85
2021/12/10 01:23:52;;;;;;;6.83;2.67;;;5.40;99.90;;;;;;6246899;23;20621;-84
2021/12/10 01:26:38;;;;;;;6.43;3.47;;;5.40;99.90;;;;;;6247654;23;20203;-83
2021/12/10 01:29:07;;;;;;;8.60;3.00;;;5.30;99.90;;;;;;6247912;23;20166;-79
2021/12/10 01:31:38;;;;;;;5.73;2.80;;;5.40;99.90;;;;;;6248900;23;20503;-84
2021/12/10 01:34:07;;;;;;;6.87;2.83;;;5.40;99.90;;;;;;6249401;23;20173;-84
2021/12/10 01:36:37;;;;;;;5.83;2.23;;;5.40;99.90;;;;;;6249933;23;20177;-83
2021/12/10 01:39:06;;;;;;;7.47;2.47;;;5.40;99.90;;;;;;6249470;23;20631;-84
2021/12/10 01:41:38;;;;;;;5.73;2.37;;;5.50;99.90;;;;;;6249337;23;20163;-85
2021/12/10 01:44:15;;;;;;;6.00;2.50;;;5.50;99.90;;;;;;6249475;23;20173;-87
2021/12/10 01:46:52;;;;;;;7.73;2.50;;;5.50;99.90;;;;;;6249476;23;20515;-83
2021/12/10 01:49:20;;;;;;;5.20;2.03;;;5.50;99.90;;;;;;6250241;23;20241;-87
2021/12/10 01:51:47;;;;;;;4.37;2.23;;;5.40;99.90;;;;;;6249097;23;20170;-83
2021/12/10 01:54:19;;;;;;;7.60;2.30;;;5.30;99.90;;;;;;6247993;23;20176;-84
2021/12/10 01:56:50;;;;;;;4.47;2.00;;;5.30;99.90;;;;;;6248515;23;20606;-83
2021/12/10 01:59:20;;;;;;;5.70;2.50;;;5.40;99.90;;;;;;6249187;22;20174;-85
2021/12/10 02:01:53;;;;;;;5.37;2.33;;;5.30;99.90;;;;;;6248560;23;20169;-83
2021/12/10 02:04:26;;;;;;;6.37;2.30;;;5.30;99.90;;;;;;6248826;23;20162;-82
2021/12/10 02:06:53;;;;;;;6.77;2.03;;;5.40;99.90;;;;;;6248176;23;20178;-84
2021/12/10 02:09:21;;;;;;;5.90;2.13;;;5.40;99.90;;;;;;6248522;23;20181;-85
2021/12/10 02:11:49;;;;;;;3.40;2.10;;;5.30;99.90;;;;;;6248015;23;20170;-83
2021/12/10 02:14:18;;;;;;;5.37;2.07;;;5.30;99.90;;;;;;6249463;23;20162;-81
2021/12/10 02:16:47;;;;;;;5.33;2.00;;;5.30;99.90;;;;;;6249046;23;20166;-84
2021/12/10 02:19:16;;;;;;;7.60;2.13;;;5.30;99.90;;;;;;6249140;23;20293;-80
2021/12/10 02:21:48;;;;;;;7.97;1.87;;;5.30;99.90;;;;;;6247818;23;20174;-82
2021/12/10 02:24:15;;;;;;;4.37;2.00;;;5.20;99.90;;;;;;6248989;23;20282;-83
2021/12/10 02:26:46;;;;;;;5.50;1.67;;;5.30;99.90;;;;;;6249525;23;20168;-78
2021/12/10 02:29:17;;;;;;;5.93;1.63;;;5.20;99.90;;;;;;6248273;23;20204;-81
2021/12/10 02:31:44;;;;;;;5.10;1.63;;;5.30;99.90;;;;;;6248037;23;20185;-81
2021/12/10 02:34:11;;;;;;;5.20;1.70;;;5.40;99.90;;;;;;6248776;22;20205;-81
2021/12/10 02:36:42;;;;;;;9.07;1.60;;;5.40;99.90;;;;;;6247324;23;20628;-85
2021/12/10 02:39:12;;;;;;;3.43;1.40;;;5.40;99.90;;;;;;6249638;23;20170;-79
2021/12/10 02:41:46;;;;;;;5.40;1.37;;;5.40;99.90;;;;;;6248414;23;20162;-80
2021/12/10 02:44:20;;;;;;;4.63;1.50;;;5.30;99.90;;;;;;6249162;23;20516;-84
2021/12/10 02:46:47;;;;;;;3.50;1.30;;;5.30;99.90;;;;;;6247866;22;20642;-81
2021/12/10 02:49:18;;;;;;;3.70;1.53;;;5.20;99.90;;;;;;6248535;23;20201;-80
2021/12/10 02:51:49;;;;;;;2.53;1.47;;;5.20;99.90;;;;;;6248831;22;20162;-80
2021/12/10 02:54:22;;;;;;;3.17;1.23;;;5.30;99.90;;;;;;6248623;23;20162;-78
2021/12/10 02:56:50;;;;;;;3.30;1.17;;;5.30;99.90;;;;;;6247652;22;20244;-77
2021/12/10 02:59:17;;;;;;;1.67;1.10;;;5.20;99.90;;;;;;6248078;22;20170;-83
2021/12/10 03:01:46;;;;;;;2.07;0.97;;;5.10;99.90;;;;;;6248658;23;20213;-82
2021/12/10 03:04:14;;;;;;;4.80;1.40;;;5.20;99.90;;;;;;6248319;22;20170;-82
2021/12/10 03:06:46;;;;;;;3.53;1.38;;;5.10;99.90;;;;;;6246850;23;20389;-82
2021/12/10 03:09:14;;;;;;;2.73;1.20;;;5.20;99.90;;;;;;6247765;23;20649;-81
2021/12/10 03:11:49;;;;;;;1.27;0.93;;;5.20;99.90;;;;;;6249521;23;20265;-82
2021/12/10 03:14:19;;;;;;;4.07;1.20;;;5.20;99.90;;;;;;6249429;23;20658;-80
2021/12/10 03:16:46;;;;;;;3.10;1.00;;;5.10;99.90;;;;;;6249099;23;20162;-82
2021/12/10 03:19:14;;;;;;;3.73;1.37;;;5.10;99.90;;;;;;6249272;23;20520;-80
2021/12/10 03:21:44;;;;;;;1.77;1.03;;;5.10;99.90;;;;;;6249386;23;20174;-80
2021/12/10 03:24:14;;;;;;;2.40;1.10;;;5.00;99.90;;;;;;6248729;23;20204;-83
2021/12/10 03:26:42;;;;;;;2.63;1.00;;;4.90;99.90;;;;;;6247982;23;20201;-82
2021/12/10 03:29:10;;;;;;;1.67;0.70;;;4.90;99.90;;;;;;6247106;23;20197;-83
2021/12/10 03:31:37;;;;;;;1.30;1.10;;;4.90;99.90;;;;;;6247447;23;20392;-85
2021/12/10 03:34:05;;;;;;;2.10;1.03;;;4.80;99.90;;;;;;6246579;23;20162;-87
2021/12/10 03:36:32;;;;;;;1.10;1.00;;;4.90;99.90;;;;;;6246908;23;20478;-82
2021/12/10 03:39:04;;;;;;;1.37;0.63;;;4.80;99.90;;;;;;6247220;23;20396;-82
2021/12/10 03:41:31;;;;;;;2.77;0.80;;;4.70;99.90;;;;;;6246440;23;20188;-85
2021/12/10 03:44:00;;;;;;;1.83;1.00;;;4.70;99.90;;;;;;6246626;23;20391;-83
2021/12/10 03:46:29;;;;;;;2.80;0.80;;;4.70;99.90;;;;;;6247102;23;20395;-83
2021/12/10 03:48:56;;;;;;;1.77;0.80;;;4.70;99.90;;;;;;6246101;23;20189;-87
2021/12/10 03:51:25;;;;;;;2.60;0.90;;;4.70;99.90;;;;;;6246552;23;20847;-82
2021/12/10 03:53:52;;;;;;;2.57;0.90;;;4.60;99.90;;;;;;6247114;23;20395;-82
2021/12/10 03:56:22;;;;;;;2.73;0.93;;;4.60;99.90;;;;;;6246532;23;20863;-83
2021/12/10 03:58:50;;;;;;;2.37;0.70;;;4.60;99.90;;;;;;6246427;23;20418;-79
2021/12/10 04:01:23;;;;;;;4.10;1.20;;;4.50;99.90;;;;;;6246323;23;20398;-84
2021/12/10 04:03:53;;;;;;;4.90;0.90;;;4.60;99.90;;;;;;6246597;23;20395;-81
2021/12/10 04:06:22;;;;;;;2.00;0.83;;;4.70;99.90;;;;;;6247490;22;20392;-80
2021/12/10 04:08:50;;;;;;;1.63;0.80;;;4.60;99.90;;;;;;6247790;23;20443;-82
2021/12/10 04:11:19;;;;;;;3.67;1.10;;;4.70;99.90;;;;;;6246979;23;20388;-83
2021/12/10 04:13:49;;;;;;;2.43;0.80;;;4.50;99.90;;;;;;6246602;22;20438;-82
2021/12/10 04:16:28;;;;;;;1.27;0.70;;;4.60;99.90;;;;;;6246905;23;20399;-84
2021/12/10 04:18:57;;;;;;;2.63;1.03;;;4.50;99.90;;;;;;6245733;23;20510;-83
2021/12/10 04:21:25;;;;;;;2.10;0.77;;;4.50;99.90;;;;;;6246932;23;20406;-82
2021/12/10 04:23:52;;;;;;;0.87;0.70;;;4.50;99.90;;;;;;6246189;23;20691;-82
2021/12/10 04:26:28;;;;;;;1.57;0.60;;;4.40;99.90;;;;;;6247307;23;20392;-82
2021/12/10 04:28:55;;;;;;;3.30;0.77;;;4.50;99.90;;;;;;6246613;23;20439;-81
2021/12/10 04:31:23;;;;;;;1.80;0.60;;;4.50;99.90;;;;;;6246378;23;20400;-84
2021/12/10 04:33:51;;;;;;;0.97;0.70;;;4.50;99.90;;;;;;6245636;23;20395;-83
2021/12/10 04:36:18;;;;;;;1.77;0.80;;;4.40;99.90;;;;;;6246210;23;20713;-84
2021/12/10 04:38:46;;;;;;;1.80;0.60;;;4.30;99.90;;;;;;6245481;23;20415;-81
2021/12/10 04:41:14;;;;;;;1.23;0.77;;;4.30;99.90;;;;;;6246558;23;20471;-82
2021/12/10 04:43:44;;;;;;;2.10;0.77;;;4.30;99.90;;;;;;6246423;23;20391;-81
2021/12/10 04:46:12;;;;;;;1.17;0.70;;;4.40;99.90;;;;;;6247632;23;20384;-79
2021/12/10 04:48:55;;;;;;;0.80;0.80;;;4.40;99.90;;;;;;6247777;23;20435;-81
2021/12/10 04:51:27;;;;;;;1.47;0.83;;;4.30;99.90;;;;;;6247434;23;20388;-81
2021/12/10 04:53:56;;;;;;;0.60;0.60;;;4.30;99.90;;;;;;6246193;23;20407;-81
2021/12/10 04:56:24;;;;;;;2.33;0.75;;;4.30;99.90;;;;;;6244974;23;20389;-81
2021/12/10 04:58:51;;;;;;;0.90;0.70;;;4.40;99.90;;;;;;6245658;23;20189;-82
2021/12/10 05:01:19;;;;;;;1.87;0.63;;;4.30;99.90;;;;;;6245624;23;20166;-84
2021/12/10 05:03:46;;;;;;;2.83;0.60;;;4.20;99.90;;;;;;6245702;23;20483;-82
2021/12/10 05:06:14;;;;;;;1.70;0.60;;;4.20;99.90;;;;;;6245770;23;20387;-82
2021/12/10 05:08:41;;;;;;;0.97;0.60;;;4.20;99.90;;;;;;6246310;23;20447;-83
2021/12/10 05:11:12;;;;;;;0.47;0.47;;;4.20;99.90;;;;;;6245629;23;20696;-80
2021/12/10 05:13:42;;;;;;;1.50;0.60;;;4.20;99.90;;;;;;6245228;23;20410;-84
2021/12/10 05:16:10;;;;;;;0.57;0.37;;;4.10;99.90;;;;;;6245545;23;20395;-85
2021/12/10 05:18:40;;;;;;;0.63;0.63;;;4.10;99.90;;;;;;6245915;23;20731;-84
2021/12/10 05:21:10;;;;;;;0.40;0.40;;;4.10;99.90;;;;;;6246342;23;20489;-84
2021/12/10 05:23:39;;;;;;;0.63;0.50;;;4.10;99.90;;;;;;6246209;23;20396;-83
2021/12/10 05:26:07;;;;;;;1.20;0.50;;;4.10;99.90;;;;;;6245810;23;20418;-83
2021/12/10 05:28:34;;;;;;;1.20;0.50;;;4.10;99.90;;;;;;6245444;23;20442;-82
2021/12/10 05:31:01;;;;;;;0.87;0.50;;;4.00;99.90;;;;;;6245455;23;20392;-81
2021/12/10 05:33:29;;;;;;;0.47;0.47;;;4.10;99.90;;;;;;6245978;23;20391;-85
2021/12/10 05:35:58;;;;;;;0.50;0.50;;;4.10;99.90;;;;;;6245252;23;20388;-85
2021/12/10 05:38:31;;;;;;;1.67;0.60;;;4.10;99.90;;;;;;6245296;22;20437;-82
2021/12/10 05:41:05;;;;;;;0.53;0.43;;;4.00;99.90;;;;;;6245761;22;20716;-81
2021/12/10 05:43:33;;;;;;;0.40;0.40;;;4.00;99.90;;;;;;6245844;22;20387;-81
2021/12/10 05:46:00;;;;;;;1.40;0.43;;;3.90;99.90;;;;;;6244704;23;20423;-82
2021/12/10 05:48:29;;;;;;;1.07;0.67;;;3.90;99.90;;;;;;6245698;23;20427;-82
2021/12/10 05:50:56;;;;;;;0.73;0.50;;;3.90;99.90;;;;;;6245376;23;20392;-81
2021/12/10 05:53:23;;;;;;;0.50;0.50;;;3.90;99.90;;;;;;6246772;23;20391;-83
2021/12/10 05:55:51;;;;;;;0.40;0.40;;;3.90;99.90;;;;;;6246118;23;20387;-81
2021/12/10 05:58:21;;;;;;;1.20;0.60;;;3.90;99.90;;;;;;6245730;23;20407;-81
2021/12/10 06:00:50;;;;;;;1.30;0.60;;;3.90;99.90;;;;;;6244947;23;20403;-80
2021/12/10 06:03:17;;;;;;;2.13;0.50;;;3.80;99.90;;;;;;6246496;23;21275;-81
2021/12/10 06:05:46;;;;;;;0.60;0.60;;;3.80;99.90;;;;;;6246314;23;20401;-83
2021/12/10 06:08:14;;;;;;;0.63;0.53;;;3.80;99.90;;;;;;6246296;23;20416;-83
2021/12/10 06:10:42;;;;;;;1.33;0.70;;;3.80;99.90;;;;;;6245052;23;20407;-81
2021/12/10 06:13:10;;;;;;;1.70;0.70;;;3.80;99.90;;;;;;6246127;23;20478;-82
2021/12/10 06:15:40;;;;;;;0.43;0.43;;;3.80;99.90;;;;;;6246149;22;20474;-81
2021/12/10 06:18:08;;;;;;;0.50;0.50;;;3.70;99.90;;;;;;6247256;23;20391;-82
2021/12/10 06:20:38;;;;;;;0.40;0.40;;;3.80;99.90;;;;;;6247809;22;20380;-82
2021/12/10 06:23:05;;;;;;;0.60;0.50;;;3.70;99.90;;;;;;6246871;23;20399;-81
2021/12/10 06:25:34;;;;;;;0.40;0.40;;;3.70;99.90;;;;;;6247288;23;20410;-82
2021/12/10 06:28:02;;;;;;;2.30;0.40;;;3.60;99.90;;;;;;6246868;23;20391;-81
2021/12/10 06:30:33;;;;;;;1.60;0.60;;;3.70;99.90;;;;;;6247205;23;20435;-82
2021/12/10 06:33:03;;;;;;;2.50;0.67;;;3.60;99.90;;;;;;6247022;23;20835;-82
2021/12/10 06:35:32;;;;;;;0.40;0.40;;;3.60;99.90;;;;;;6246826;23;20411;-82
2021/12/10 06:37:59;;;;;;;0.80;0.50;;;3.50;99.90;;;;;;6246728;23;20415;-81
2021/12/10 06:40:35;;;;;;;0.60;0.60;;;3.70;99.90;;;;;;6247167;23;20395;-82
2021/12/10 06:43:04;;;;;;;0.63;0.60;;;3.60;99.90;;;;;;6246236;23;20387;-82
2021/12/10 06:45:33;;;;;;;0.53;0.53;;;3.70;99.90;;;;;;6246634;23;20395;-83
2021/12/10 06:48:06;;;;;;;0.57;0.53;;;3.70;99.90;;;;;;6246404;23;20403;-82
2021/12/10 06:50:38;;;;;;;0.90;0.60;;;3.70;99.90;;;;;;6246733;23;20431;-80
2021/12/10 06:53:05;;;;;;;0.67;0.53;;;3.70;99.90;;;;;;6247044;23;20391;-81
2021/12/10 06:55:36;;;;;;;0.40;0.40;;;3.80;99.90;;;;;;6247443;23;20407;-80
2021/12/10 06:58:04;;;;;;;0.60;0.60;;;3.60;99.90;;;;;;6246741;23;20395;-82
2021/12/10 07:00:34;;;;;;;0.40;0.40;;;3.60;99.90;;;;;;6246760;23;20391;-82
2021/12/10 07:03:02;;;;;;;1.57;0.60;;;3.60;99.90;;;;;;6246781;23;20413;-83
2021/12/10 07:05:29;;;;;;;0.70;0.70;;;3.60;99.90;;;;;;6247160;23;20388;-83
2021/12/10 07:07:56;;;;;;;2.50;0.70;;;3.60;99.90;;;;;;6246451;23;20411;-83
2021/12/10 07:10:23;;;;;;;1.90;0.67;;;3.50;99.90;;;;;;6246575;23;20453;-83
2021/12/10 07:12:51;;;;;;;0.87;0.50;;;3.40;99.90;;;;;;6246131;23;20703;-83
2021/12/10 07:15:18;;;;;;;0.60;0.60;;;3.40;99.90;;;;;;6246682;23;20717;-83
2021/12/10 07:17:50;;;;;;;1.00;0.70;;;3.50;99.90;;;;;;6246502;23;20391;-82
2021/12/10 07:20:22;;;;;;;0.60;0.60;;;3.30;99.90;;;;;;6246497;23;20411;-83
2021/12/10 07:22:51;;;;;;;0.65;0.60;;;3.40;99.90;;;;;;6246198;23;20390;-79
2021/12/10 07:25:18;;;;;;;1.20;1.10;;;3.40;99.90;;;;;;6246735;23;20163;-82
2021/12/10 07:27:45;;;;;;;1.77;1.67;;;3.30;99.90;;;;;;6245493;23;20782;-83
2021/12/10 07:30:12;;;;;;;1.37;0.70;;;3.30;99.90;;;;;;6246210;23;20446;-82
2021/12/10 07:32:39;;;;;;;1.40;0.80;;;3.40;99.90;;;;;;6246355;23;20392;-80
2021/12/10 07:35:10;;;;;;;0.80;0.80;;;3.40;99.90;;;;;;6246696;23;20395;-85
2021/12/10 07:37:38;;;;;;;0.60;0.60;;;3.30;99.90;;;;;;6246087;23;20415;-78
2021/12/10 07:40:08;;;;;;;1.33;0.70;;;3.30;99.90;;;;;;6246143;23;20399;-83
2021/12/10 07:42:35;;;;;;;2.23;2.13;;;3.30;99.90;;;;;;6245937;22;20702;-81
2021/12/10 07:45:02;;;;;;;0.73;0.73;;;3.40;99.90;;;;;;6245823;23;20434;-82
2021/12/10 07:47:34;;;;;;;1.10;0.83;;;3.40;99.90;;;;;;6244799;23;20453;-79
2021/12/10 07:50:01;;;;;;;1.67;0.90;;;3.30;99.90;;;;;;6245929;23;20518;-80
2021/12/10 07:52:33;;;;;;;0.80;0.80;;;3.40;99.90;;;;;;6248181;23;20391;-79
2021/12/10 07:55:05;;;;;;;1.70;0.97;;;3.50;99.90;;;;;;6246110;23;20875;-81
2021/12/10 07:57:33;;;;;;;0.83;0.83;;;3.50;99.90;;;;;;6246903;23;20398;-83
2021/12/10 08:00:00;;;;;;;1.07;1.07;;;3.40;99.90;;;;;;6245827;23;20395;-82
2021/12/10 08:02:27;;;;;;;1.47;1.30;;;3.50;99.90;;;;;;6246305;23;20418;-82
2021/12/10 08:04:54;;;;;;;0.90;0.90;;;3.40;99.90;;;;;;6246272;23;20392;-82
2021/12/10 08:07:21;;;;;;;2.87;2.70;;;3.40;99.90;;;;;;6246306;23;20431;-82
2021/12/10 08:09:50;;;;;;;1.13;1.13;;;3.40;99.90;;;;;;6245690;23;20439;-83
2021/12/10 08:12:22;;;;;;;1.10;1.10;;;3.40;99.90;;;;;;6246469;22;20513;-84
2021/12/10 08:14:53;;;;;;;1.20;1.20;;;3.40;99.90;;;;;;6246088;22;20404;-82
2021/12/10 08:17:20;;;;;;;2.17;1.30;;;3.50;99.90;;;;;;6246304;23;20414;-81
2021/12/10 08:19:49;;;;;;;1.90;1.30;;;3.50;99.90;;;;;;6245693;23;20419;-83
2021/12/10 08:22:16;;;;;;;1.33;1.23;;;3.50;99.90;;;;;;6247176;23;20390;-81
2021/12/10 08:24:43;;;;;;;1.70;1.60;;;3.40;99.90;;;;;;6246049;23;20428;-83
2021/12/10 08:27:11;;;;;;;1.67;1.63;;;3.50;99.90;;;;;;6246191;23;20805;-80
2021/12/10 08:29:44;;;;;;;2.57;2.37;;;3.50;99.90;;;;;;6246184;23;20431;-89
2021/12/10 08:32:16;;;;;;;2.03;1.93;;;3.60;99.90;;;;;;6247025;23;20399;-83
2021/12/10 08:34:43;;;;;;;2.07;1.83;;;3.60;99.90;;;;;;6246383;23;20457;-80
2021/12/10 08:37:11;;;;;;;2.17;1.80;;;3.70;99.90;;;;;;6246138;23;20419;-82
2021/12/10 08:39:39;;;;;;;2.10;2.00;;;3.70;99.90;;;;;;6246269;23;20399;-82
2021/12/10 08:42:09;;;;;;;2.00;1.90;;;3.60;99.90;;;;;;6248396;23;20691;-86
2021/12/10 08:44:36;;;;;;;1.70;1.60;;;3.60;99.90;;;;;;6248590;23;20446;-85
2021/12/10 08:47:06;;;;;;;1.97;1.87;;;3.60;99.90;;;;;;6248018;23;20399;-85
2021/12/10 08:49:34;;;;;;;1.80;1.70;;;3.40;99.90;;;;;;6247772;23;20755;-85
2021/12/10 08:52:02;;;;;;;2.20;2.00;;;3.30;99.90;;;;;;6247514;23;20391;-82
2021/12/10 08:54:32;;;;;;;2.00;1.90;;;3.30;99.90;;;;;;6247575;23;20398;-82
2021/12/10 08:57:00;;;;;;;2.43;2.33;;;3.40;99.90;;;;;;6246780;23;20399;-83
2021/12/10 08:59:28;;;;;;;2.07;1.97;;;3.50;99.90;;;;;;6247469;23;20407;-81
2021/12/10 09:01:59;;;;;;;2.27;2.17;;;3.50;99.90;;;;;;6246176;23;20395;-83
2021/12/10 09:04:30;;;;;;;2.30;2.10;;;3.40;99.90;;;;;;6245956;23;20391;-86
2021/12/10 09:07:00;;;;;;;2.73;1.90;;;3.50;99.90;;;;;;6245821;23;20415;-81
2021/12/10 09:09:34;;;;;;;2.10;2.00;;;3.50;99.90;;;;;;6247735;23;20446;-88
2021/12/10 09:12:06;;;;;;;2.30;2.20;;;3.20;99.90;;;;;;6248637;23;20411;-87
2021/12/10 09:14:41;;;;;;;2.43;2.33;;;3.40;99.90;;;;;;6249008;23;20478;-89
2021/12/10 09:17:16;;;;;;;2.40;2.20;;;3.60;99.90;;;;;;6249003;23;20442;-85
2021/12/10 09:19:46;;;;;;;2.57;2.37;;;3.60;99.90;;;;;;6246355;23;20410;-83
2021/12/10 09:22:13;;;;;;;2.27;2.07;;;3.70;99.90;;;;;;6246321;23;20399;-84
2021/12/10 09:24:42;;;;;;;3.07;2.33;;;3.70;99.90;;;;;;6247432;23;20388;-84
2021/12/10 09:27:11;;;;;;;2.37;2.27;;;3.60;99.90;;;;;;6247165;23;20475;-80
2021/12/10 09:29:42;;;;;;;4.30;2.60;;;3.70;99.90;;;;;;6245640;23;20430;-86
2021/12/10 09:32:12;;;;;;;2.63;2.43;;;3.60;99.90;;;;;;6251884;22;20391;-83
2021/12/10 09:34:42;;;;;;;3.17;2.40;;;3.50;99.90;;;;;;6247571;23;20398;-84
2021/12/10 09:37:12;;;;;;;2.87;2.73;;;3.40;99.90;;;;;;6245919;23;20263;-82
2021/12/10 09:39:43;;;;;;;2.77;2.67;;;3.50;99.90;;;;;;6246560;22;20418;-86
2021/12/10 09:42:11;;;;;;;5.70;2.57;;;3.40;99.90;;;;;;6247236;23;20391;-86
2021/12/10 09:44:38;;;;;;;2.90;2.70;;;3.40;99.90;;;;;;6244685;23;20453;-90
2021/12/10 09:47:11;;;;;;;2.80;2.53;;;3.50;99.90;;;;;;6246212;23;20407;-80
2021/12/10 09:49:38;;;;;;;2.90;2.70;;;3.60;99.90;;;;;;6246364;23;20439;-83
2021/12/10 09:52:07;;;;;;;3.70;3.50;;;3.40;99.90;;;;;;6247443;23;20397;-84
2021/12/10 09:54:36;;;;;;;3.20;3.00;;;3.70;99.90;;;;;;6239981;23;20181;-80
2021/12/10 09:57:09;;;;;;;2.80;2.70;;;3.60;99.90;;;;;;6246284;23;20399;-81
2021/12/10 09:59:38;;;;;;;2.83;2.60;;;3.60;99.90;;;;;;6248546;23;20306;-80
2021/12/10 10:02:06;;;;;;;3.43;2.93;;;3.60;99.90;;;;;;6247869;22;20166;-79
2021/12/10 10:04:35;;;;;;;3.50;3.20;;;3.60;99.90;;;;;;6248961;23;20201;-81
2021/12/10 10:07:07;;;;;;;3.10;2.80;;;3.50;99.90;;;;;;6248355;23;20407;-81
2021/12/10 10:09:36;;;;;;;3.00;2.80;;;3.30;99.90;;;;;;6248516;22;20486;-80
2021/12/10 10:12:06;;;;;;;3.30;3.10;;;3.30;99.90;;;;;;6248929;23;20478;-82
2021/12/10 10:14:34;;;;;;;3.40;3.20;;;3.10;99.90;;;;;;6248089;23;20399;-83
2021/12/10 10:17:01;;;;;;;3.40;3.10;;;2.90;99.90;;;;;;6247334;23;20383;-82
2021/12/10 10:19:29;;;;;;;3.57;3.27;;;2.70;99.90;;;;;;6247937;23;20430;-81
2021/12/10 10:21:58;;;;;;;4.63;3.87;;;2.60;99.90;;;;;;6247214;23;20414;-83
2021/12/10 10:24:28;;;;;;;4.03;3.73;;;2.50;99.90;;;;;;6249100;23;20435;-84
2021/12/10 10:27:00;;;;;;;4.03;3.63;;;2.40;99.90;;;;;;6248879;23;20390;-81
2021/12/10 10:29:32;;;;;;;3.43;3.17;;;2.30;99.90;;;;;;6248913;23;20746;-82
2021/12/10 10:32:09;;;;;;;4.63;4.30;;;2.10;99.90;;;;;;6249755;23;20411;-83
2021/12/10 10:34:43;;;;;;;15.57;11.97;;;2.00;99.90;;;;;;6250725;23;20424;-81
2021/12/10 10:37:10;;;;;;;6.27;5.40;;;1.90;99.90;;;;;;6249503;23;20407;-76
2021/12/10 10:39:40;;;;;;;6.37;5.83;;;2.00;99.90;;;;;;6250112;23;20403;-76
2021/12/10 10:42:17;;;;;;;6.83;6.17;;;2.00;99.90;;;;;;6249196;23;20404;-76
2021/12/10 10:44:45;;;;;;;8.53;5.70;;;2.00;99.90;;;;;;6248102;23;20925;-75
2021/12/10 10:47:12;;;;;;;7.03;6.43;;;1.90;99.90;;;;;;6246753;23;20402;-83
2021/12/10 10:49:42;;;;;;;5.83;5.43;;;1.80;99.90;;;;;;6247036;23;20433;-78
2021/12/10 10:52:17;;;;;;;9.07;7.97;;;1.80;99.90;;;;;;6246928;23;20719;-76
2021/12/10 10:54:44;;;;;;;6.27;5.67;;;1.80;99.90;;;;;;6247086;23;20387;-76
2021/12/10 10:57:16;;;;;;;6.53;5.93;;;1.80;99.90;;;;;;6246451;23;20902;-79
2021/12/10 10:59:43;;;;;;;7.00;6.40;;;1.70;99.90;;;;;;6246585;23;20407;-79
2021/12/10 11:02:11;;;;;;;6.60;6.00;;;1.80;99.90;;;;;;6244861;23;20731;-74
2021/12/10 11:04:44;;;;;;;7.03;6.33;;;1.60;99.90;;;;;;6246591;22;20457;-74
2021/12/10 11:07:18;;;;;;;6.43;5.93;;;1.70;99.90;;;;;;6246036;23;20419;-76
2021/12/10 11:09:49;;;;;;;6.47;5.97;;;1.80;99.90;;;;;;6246911;23;20415;-75
2021/12/10 11:12:21;;;;;;;7.63;7.00;;;1.90;99.90;;;;;;6246679;22;20478;-73
2021/12/10 11:14:50;;;;;;;7.47;6.87;;;1.90;99.90;;;;;;6247132;22;20430;-77
2021/12/10 11:17:22;;;;;;;8.17;7.40;;;1.90;99.90;;;;;;6247128;22;20396;-77
2021/12/10 11:19:53;;;;;;;8.57;7.80;;;1.90;99.90;;;;;;6247272;23;20738;-78
2021/12/10 11:22:23;;;;;;;9.17;8.33;;;2.00;99.90;;;;;;6248638;23;20384;-82
2021/12/10 11:24:55;;;;;;;8.47;7.73;;;2.00;99.90;;;;;;6247213;23;20495;-81
2021/12/10 11:27:27;;;;;;;8.23;7.00;;;1.90;99.90;;;;;;6246244;23;20407;-82
2021/12/10 11:29:56;;;;;;;8.27;7.43;;;2.10;99.90;;;;;;6246352;23;20410;-84
2021/12/10 11:32:33;;;;;;;8.83;7.97;;;2.00;99.90;;;;;;6245963;23;20398;-84
2021/12/10 11:35:09;;;;;;;10.95;9.88;;;2.10;99.90;;;;;;6246155;23;20390;-83
2021/12/10 11:38:06;;;;;;;9.57;8.67;;;2.10;99.90;;;;;;6246554;23;20192;-87
2021/12/10 11:40:49;;;;;;;9.83;8.47;;;2.20;99.90;;;;;;6216458;23;20414;-86
2021/12/10 11:43:44;;;;;;;10.57;9.57;;;2.20;99.90;;;;;;6245115;23;20993;-87
2021/12/10 11:46:31;;;;;;;9.70;8.77;;;2.20;99.90;;;;;;6245410;23;20411;-82
2021/12/10 11:49:07;;;;;;;10.30;9.30;;;2.20;99.90;;;;;;6245672;23;20415;-78
2021/12/10 11:51:37;;;;;;;11.30;9.20;;;2.30;99.90;;;;;;6245980;23;20956;-77
2021/12/10 11:54:06;;;;;;;10.37;9.37;;;2.20;99.90;;;;;;6245818;23;20851;-80
2021/12/10 11:56:44;;;;;;;10.43;9.33;;;2.30;99.90;;;;;;6246357;23;20418;-82
2021/12/10 11:59:16;;;;;;;11.60;9.73;;;2.30;99.90;;;;;;6245179;22;20878;-78
2021/12/10 12:01:49;;;;;;;9.67;8.77;;;2.40;99.90;;;;;;6245642;23;20872;-82
2021/12/10 12:04:19;;;;;;;9.60;8.70;;;2.40;99.90;;;;;;6245224;23;20399;-79
2021/12/10 12:06:49;;;;;;;9.83;8.23;;;2.50;99.90;;;;;;6245590;23;20864;-79
2021/12/10 12:09:30;;;;;;;10.67;9.57;;;2.60;99.90;;;;;;6246282;22;20407;-79
2021/12/10 12:12:16;;;;;;;12.03;9.50;;;2.60;99.90;;;;;;6245801;23;20442;-79
2021/12/10 12:14:51;;;;;;;10.63;9.43;;;2.60;99.90;;;;;;6244541;23;20656;-79
2021/12/10 12:17:37;;;;;;;10.17;9.13;;;2.60;99.90;;;;;;6245488;23;20410;-78
2021/12/10 12:20:15;;;;;;;8.70;7.47;;;2.70;99.90;;;;;;6245875;23;20755;-79
2021/12/10 12:25:30;;;;;;;7.03;6.33;;;2.70;99.90;;;;;;6245838;23;20430;-78
2021/12/10 12:28:06;;;;;;;8.10;7.30;;;2.70;99.90;;;;;;6245446;23;20400;-80
2021/12/10 12:30:51;;;;;;;7.23;6.53;;;2.70;99.90;;;;;;6245681;23;20434;-81
2021/12/10 12:33:18;;;;;;;9.65;8.85;;;2.80;99.90;;;;;;6244374;23;20393;-79
2021/12/10 12:35:46;;;;;;;8.37;7.57;;;2.90;99.90;;;;;;6245545;23;20660;-81
2021/12/10 12:38:17;;;;;;;7.07;6.47;;;2.80;99.90;;;;;;6245810;23;20411;-80
2021/12/10 12:40:47;;;;;;;6.50;5.70;;;2.80;99.90;;;;;;6244981;23;20410;-80
2021/12/10 12:43:14;;;;;;;6.63;6.03;;;2.80;99.90;;;;;;6245614;23;20427;-81
2021/12/10 12:45:43;;;;;;;7.60;6.03;;;2.70;99.90;;;;;;6245798;23;20429;-81
2021/12/10 12:48:14;;;;;;;6.33;5.73;;;2.70;99.90;;;;;;6245802;23;20396;-80
2021/12/10 12:50:43;;;;;;;6.13;5.63;;;2.70;99.90;;;;;;6245582;23;20753;-85
2021/12/10 12:53:13;;;;;;;6.33;5.73;;;2.60;99.90;;;;;;6246212;23;20394;-79
2021/12/10 12:55:55;;;;;;;6.80;6.20;;;2.60;99.90;;;;;;6245586;23;20388;-82
2021/12/10 12:58:26;;;;;;;6.00;5.40;;;2.60;99.90;;;;;;6246171;23;20395;-76
2021/12/10 13:01:13;;;;;;;6.97;6.30;;;2.60;99.90;;;;;;6244597;23;20438;-81
2021/12/10 13:03:46;;;;;;;7.67;6.90;;;2.50;99.90;;;;;;6243261;23;20394;-79
2021/12/10 13:06:16;;;;;;;8.27;7.47;;;2.40;99.90;;;;;;6245467;23;20899;-80
2021/12/10 13:08:45;;;;;;;8.13;6.97;;;2.50;99.90;;;;;;6246082;23;20413;-79
2021/12/10 13:11:18;;;;;;;7.73;6.90;;;2.40;99.90;;;;;;6245344;23;20510;-85
2021/12/10 13:13:50;;;;;;;8.00;7.20;;;2.30;99.90;;;;;;6245874;23;20396;-82
2021/12/10 13:16:37;;;;;;;8.10;7.30;;;2.30;99.90;;;;;;6246204;23;20863;-80
2021/12/10 13:19:04;;;;;;;8.93;8.03;;;2.20;99.90;;;;;;6244123;22;20419;-81